sensor_id;sensor_type;location;lat;lon;timestamp;temperature;humidity
46366;DHT22;32073;49.166;8.076;2022-09-01T00:02:33;21.60;50.00
46366;DHT22;32073;49.166;8.076;2022-09-01T00:06:35;21.60;50.10
46366;DHT22;32073;49.166;8.076;2022-09-01T00:10:39;21.60;50.20
46366;DHT22;32073;49.166;8.076;2022-09-01T00:14:41;21.50;50.30
46366;DHT22;32073;49.166;8.076;2022-09-01T00:18:43;21.40;50.30
46366;DHT22;32073;49.166;8.076;2022-09-01T00:22:46;21.50;50.50
46366;DHT22;32073;49.166;8.076;2022-09-01T00:26:47;21.40;50.50
46366;DHT22;32073;49.166;8.076;2022-09-01T00:30:48;21.40;50.70
46366;DHT22;32073;49.166;8.076;2022-09-01T00:34:50;21.40;50.70
46366;DHT22;32073;49.166;8.076;2022-09-01T00:38:52;21.40;50.80
46366;DHT22;32073;49.166;8.076;2022-09-01T00:42:53;21.40;50.90
46366;DHT22;32073;49.166;8.076;2022-09-01T00:46:55;21.40;50.90
46366;DHT22;32073;49.166;8.076;2022-09-01T00:50:56;21.40;51.00
46366;DHT22;32073;49.166;8.076;2022-09-01T00:55:04;21.40;51.10
46366;DHT22;32073;49.166;8.076;2022-09-01T00:59:09;21.30;51.10
46366;DHT22;32073;49.166;8.076;2022-09-01T01:03:13;21.30;51.20
46366;DHT22;32073;49.166;8.076;2022-09-01T01:07:14;21.30;51.20
46366;DHT22;32073;49.166;8.076;2022-09-01T01:11:16;21.20;51.20
46366;DHT22;32073;49.166;8.076;2022-09-01T01:15:18;21.20;51.30
46366;DHT22;32073;49.166;8.076;2022-09-01T01:24:37;21.20;51.70
46366;DHT22;32073;49.166;8.076;2022-09-01T01:28:25;21.20;51.80
46366;DHT22;32073;49.166;8.076;2022-09-01T01:32:27;21.10;51.80
46366;DHT22;32073;49.166;8.076;2022-09-01T01:36:32;21.10;51.80
46366;DHT22;32073;49.166;8.076;2022-09-01T01:40:37;21.10;52.00
46366;DHT22;32073;49.166;8.076;2022-09-01T01:44:38;21.00;51.90
46366;DHT22;32073;49.166;8.076;2022-09-01T01:48:41;21.00;51.90
46366;DHT22;32073;49.166;8.076;2022-09-01T01:52:41;21.00;52.10
46366;DHT22;32073;49.166;8.076;2022-09-01T01:56:42;20.90;52.10
46366;DHT22;32073;49.166;8.076;2022-09-01T02:00:43;20.90;52.10
46366;DHT22;32073;49.166;8.076;2022-09-01T02:04:45;20.90;52.20
46366;DHT22;32073;49.166;8.076;2022-09-01T02:08:46;20.90;52.30
46366;DHT22;32073;49.166;8.076;2022-09-01T02:12:47;20.90;52.40
46366;DHT22;32073;49.166;8.076;2022-09-01T02:16:48;20.90;52.50
46366;DHT22;32073;49.166;8.076;2022-09-01T02:20:51;20.90;52.50
46366;DHT22;32073;49.166;8.076;2022-09-01T02:24:52;20.80;52.50
46366;DHT22;32073;49.166;8.076;2022-09-01T02:28:53;20.80;52.60
46366;DHT22;32073;49.166;8.076;2022-09-01T02:32:54;20.70;52.50
46366;DHT22;32073;49.166;8.076;2022-09-01T02:36:55;20.70;52.60
46366;DHT22;32073;49.166;8.076;2022-09-01T02:40:57;20.70;52.80
46366;DHT22;32073;49.166;8.076;2022-09-01T02:44:58;20.70;52.90
46366;DHT22;32073;49.166;8.076;2022-09-01T02:48:59;20.60;52.90
46366;DHT22;32073;49.166;8.076;2022-09-01T02:52:59;20.60;53.00
46366;DHT22;32073;49.166;8.076;2022-09-01T02:57:01;20.60;53.20
46366;DHT22;32073;49.166;8.076;2022-09-01T03:01:03;20.60;53.20
46366;DHT22;32073;49.166;8.076;2022-09-01T03:05:04;20.60;53.90
46366;DHT22;32073;49.166;8.076;2022-09-01T03:09:13;20.60;53.30
46366;DHT22;32073;49.166;8.076;2022-09-01T03:13:21;20.70;53.60
46366;DHT22;32073;49.166;8.076;2022-09-01T03:17:26;20.60;53.50
46366;DHT22;32073;49.166;8.076;2022-09-01T03:21:27;20.60;53.30
46366;DHT22;32073;49.166;8.076;2022-09-01T03:25:29;20.60;53.50
46366;DHT22;32073;49.166;8.076;2022-09-01T03:29:30;20.60;53.60
46366;DHT22;32073;49.166;8.076;2022-09-01T03:33:31;20.70;53.70
46366;DHT22;32073;49.166;8.076;2022-09-01T03:37:33;20.60;53.70
46366;DHT22;32073;49.166;8.076;2022-09-01T03:41:35;20.60;53.70
46366;DHT22;32073;49.166;8.076;2022-09-01T03:45:37;20.60;53.80
46366;DHT22;32073;49.166;8.076;2022-09-01T03:49:39;20.50;53.80
46366;DHT22;32073;49.166;8.076;2022-09-01T03:53:42;20.50;53.90
46366;DHT22;32073;49.166;8.076;2022-09-01T03:57:44;20.60;54.00
46366;DHT22;32073;49.166;8.076;2022-09-01T04:01:46;20.50;53.90
46366;DHT22;32073;49.166;8.076;2022-09-01T04:05:49;20.50;54.00
46366;DHT22;32073;49.166;8.076;2022-09-01T04:09:51;20.40;54.00
46366;DHT22;32073;49.166;8.076;2022-09-01T04:13:52;20.40;54.00
46366;DHT22;32073;49.166;8.076;2022-09-01T04:17:53;20.40;54.20
46366;DHT22;32073;49.166;8.076;2022-09-01T04:22:09;20.30;54.20
46366;DHT22;32073;49.166;8.076;2022-09-01T04:26:13;20.40;54.30
46366;DHT22;32073;49.166;8.076;2022-09-01T04:30:14;20.30;54.20
46366;DHT22;32073;49.166;8.076;2022-09-01T04:34:16;20.30;54.30
46366;DHT22;32073;49.166;8.076;2022-09-01T04:38:16;20.30;54.30
46366;DHT22;32073;49.166;8.076;2022-09-01T04:42:19;20.30;54.30
46366;DHT22;32073;49.166;8.076;2022-09-01T04:46:24;20.20;54.40
46366;DHT22;32073;49.166;8.076;2022-09-01T04:50:27;20.20;54.50
46366;DHT22;32073;49.166;8.076;2022-09-01T04:54:30;20.10;54.40
46366;DHT22;32073;49.166;8.076;2022-09-01T04:58:32;20.10;54.50
46366;DHT22;32073;49.166;8.076;2022-09-01T05:02:33;20.00;54.50
46366;DHT22;32073;49.166;8.076;2022-09-01T05:06:34;20.00;54.60
46366;DHT22;32073;49.166;8.076;2022-09-01T05:10:42;19.90;54.60
46366;DHT22;32073;49.166;8.076;2022-09-01T05:14:46;19.90;54.90
46366;DHT22;32073;49.166;8.076;2022-09-01T05:18:48;19.90;55.00
46366;DHT22;32073;49.166;8.076;2022-09-01T05:22:49;19.90;55.00
46366;DHT22;32073;49.166;8.076;2022-09-01T05:26:50;19.90;55.00
46366;DHT22;32073;49.166;8.076;2022-09-01T05:30:51;20.00;55.10
46366;DHT22;32073;49.166;8.076;2022-09-01T05:34:55;19.90;55.10
46366;DHT22;32073;49.166;8.076;2022-09-01T05:38:56;19.90;55.20
46366;DHT22;32073;49.166;8.076;2022-09-01T05:42:58;19.90;55.30
46366;DHT22;32073;49.166;8.076;2022-09-01T05:47:00;20.00;55.40
46366;DHT22;32073;49.166;8.076;2022-09-01T05:51:04;20.10;55.60
46366;DHT22;32073;49.166;8.076;2022-09-01T05:55:06;19.90;55.70
46366;DHT22;32073;49.166;8.076;2022-09-01T05:59:08;19.90;55.70
46366;DHT22;32073;49.166;8.076;2022-09-01T06:03:10;20.00;55.80
46366;DHT22;32073;49.166;8.076;2022-09-01T06:07:12;20.00;55.90
46366;DHT22;32073;49.166;8.076;2022-09-01T06:11:16;20.00;55.90
46366;DHT22;32073;49.166;8.076;2022-09-01T06:15:17;20.00;56.00
46366;DHT22;32073;49.166;8.076;2022-09-01T06:19:20;20.10;56.00
46366;DHT22;32073;49.166;8.076;2022-09-01T06:23:21;20.10;56.20
46366;DHT22;32073;49.166;8.076;2022-09-01T06:27:21;20.20;56.30
46366;DHT22;32073;49.166;8.076;2022-09-01T06:31:27;20.20;56.30
46366;DHT22;32073;49.166;8.076;2022-09-01T06:35:33;20.20;56.50
46366;DHT22;32073;49.166;8.076;2022-09-01T06:39:36;20.30;56.40
46366;DHT22;32073;49.166;8.076;2022-09-01T06:43:39;20.40;56.40
46366;DHT22;32073;49.166;8.076;2022-09-01T06:47:47;20.40;56.50
46366;DHT22;32073;49.166;8.076;2022-09-01T06:51:50;20.50;56.60
46366;DHT22;32073;49.166;8.076;2022-09-01T06:55:52;20.50;56.70
46366;DHT22;32073;49.166;8.076;2022-09-01T06:59:52;20.60;56.80
46366;DHT22;32073;49.166;8.076;2022-09-01T07:03:54;20.60;56.90
46366;DHT22;32073;49.166;8.076;2022-09-01T07:07:58;20.70;57.00
46366;DHT22;32073;49.166;8.076;2022-09-01T07:11:59;20.70;56.90
46366;DHT22;32073;49.166;8.076;2022-09-01T07:16:02;20.80;56.90
46366;DHT22;32073;49.166;8.076;2022-09-01T07:20:06;20.80;57.00
46366;DHT22;32073;49.166;8.076;2022-09-01T07:24:10;20.80;56.90
46366;DHT22;32073;49.166;8.076;2022-09-01T07:28:12;20.90;57.10
46366;DHT22;32073;49.166;8.076;2022-09-01T07:32:13;20.80;57.00
46366;DHT22;32073;49.166;8.076;2022-09-01T07:36:15;20.90;57.00
46366;DHT22;32073;49.166;8.076;2022-09-01T07:40:18;21.00;57.20
46366;DHT22;32073;49.166;8.076;2022-09-01T07:44:21;21.00;57.40
46366;DHT22;32073;49.166;8.076;2022-09-01T07:48:23;21.10;57.50
46366;DHT22;32073;49.166;8.076;2022-09-01T07:52:24;21.20;57.50
46366;DHT22;32073;49.166;8.076;2022-09-01T07:56:27;21.30;57.50
46366;DHT22;32073;49.166;8.076;2022-09-01T08:00:29;21.30;57.30
46366;DHT22;32073;49.166;8.076;2022-09-01T08:04:32;21.30;57.40
46366;DHT22;32073;49.166;8.076;2022-09-01T08:08:34;21.40;57.30
46366;DHT22;32073;49.166;8.076;2022-09-01T08:12:36;21.50;57.50
46366;DHT22;32073;49.166;8.076;2022-09-01T08:16:37;21.60;57.40
46366;DHT22;32073;49.166;8.076;2022-09-01T08:20:39;21.60;57.40
46366;DHT22;32073;49.166;8.076;2022-09-01T08:24:44;21.70;57.30
46366;DHT22;32073;49.166;8.076;2022-09-01T08:28:46;21.60;57.30
46366;DHT22;32073;49.166;8.076;2022-09-01T08:32:48;21.80;57.30
46366;DHT22;32073;49.166;8.076;2022-09-01T08:36:49;21.80;57.40
46366;DHT22;32073;49.166;8.076;2022-09-01T08:40:53;21.90;57.40
46366;DHT22;32073;49.166;8.076;2022-09-01T08:45:03;22.00;57.50
46366;DHT22;32073;49.166;8.076;2022-09-01T08:49:17;22.10;57.60
46366;DHT22;32073;49.166;8.076;2022-09-01T08:53:46;22.20;57.50
46366;DHT22;32073;49.166;8.076;2022-09-01T08:57:50;22.30;57.50
46366;DHT22;32073;49.166;8.076;2022-09-01T09:06:24;22.40;57.40
46366;DHT22;32073;49.166;8.076;2022-09-01T09:15:13;22.60;57.10
46366;DHT22;32073;49.166;8.076;2022-09-01T09:23:38;22.70;57.20
46366;DHT22;32073;49.166;8.076;2022-09-01T09:27:48;22.90;57.30
46366;DHT22;32073;49.166;8.076;2022-09-01T09:32:05;23.00;57.20
46366;DHT22;32073;49.166;8.076;2022-09-01T09:36:20;23.10;57.00
46366;DHT22;32073;49.166;8.076;2022-09-01T09:40:26;23.30;56.70
46366;DHT22;32073;49.166;8.076;2022-09-01T09:44:29;23.30;56.40
46366;DHT22;32073;49.166;8.076;2022-09-01T09:48:32;23.40;56.10
46366;DHT22;32073;49.166;8.076;2022-09-01T09:52:33;23.50;56.00
46366;DHT22;32073;49.166;8.076;2022-09-01T09:56:34;23.60;56.30
46366;DHT22;32073;49.166;8.076;2022-09-01T10:00:35;23.70;56.10
46366;DHT22;32073;49.166;8.076;2022-09-01T10:04:37;23.90;56.00
46366;DHT22;32073;49.166;8.076;2022-09-01T10:08:43;23.90;55.80
46366;DHT22;32073;49.166;8.076;2022-09-01T10:12:44;24.10;55.20
46366;DHT22;32073;49.166;8.076;2022-09-01T10:16:47;24.30;55.30
46366;DHT22;32073;49.166;8.076;2022-09-01T10:21:02;24.30;55.00
46366;DHT22;32073;49.166;8.076;2022-09-01T10:25:12;24.40;54.30
46366;DHT22;32073;49.166;8.076;2022-09-01T10:29:31;24.40;54.10
46366;DHT22;32073;49.166;8.076;2022-09-01T10:33:35;24.40;53.80
46366;DHT22;32073;49.166;8.076;2022-09-01T10:37:36;24.30;53.90
46366;DHT22;32073;49.166;8.076;2022-09-01T10:42:00;24.40;53.90
46366;DHT22;32073;49.166;8.076;2022-09-01T10:50:30;24.40;53.50
46366;DHT22;32073;49.166;8.076;2022-09-01T11:11:27;24.60;53.10
46366;DHT22;32073;49.166;8.076;2022-09-01T11:15:42;24.70;52.90
46366;DHT22;32073;49.166;8.076;2022-09-01T11:28:41;25.00;52.60
46366;DHT22;32073;49.166;8.076;2022-09-01T11:32:45;25.00;52.60
46366;DHT22;32073;49.166;8.076;2022-09-01T11:40:57;25.20;52.00
46366;DHT22;32073;49.166;8.076;2022-09-01T11:45:05;25.30;51.80
46366;DHT22;32073;49.166;8.076;2022-09-01T11:49:33;25.30;51.20
46366;DHT22;32073;49.166;8.076;2022-09-01T11:53:37;25.30;51.00
46366;DHT22;32073;49.166;8.076;2022-09-01T11:57:39;25.20;50.80
46366;DHT22;32073;49.166;8.076;2022-09-01T12:01:40;25.30;51.00
46366;DHT22;32073;49.166;8.076;2022-09-01T12:05:40;25.30;50.70
46366;DHT22;32073;49.166;8.076;2022-09-01T12:09:44;25.40;51.30
46366;DHT22;32073;49.166;8.076;2022-09-01T12:13:57;25.50;51.20
46366;DHT22;32073;49.166;8.076;2022-09-01T12:18:14;25.70;50.70
46366;DHT22;32073;49.166;8.076;2022-09-01T12:22:20;25.80;50.20
46366;DHT22;32073;49.166;8.076;2022-09-01T12:26:27;25.90;50.10
46366;DHT22;32073;49.166;8.076;2022-09-01T12:30:30;25.90;49.40
46366;DHT22;32073;49.166;8.076;2022-09-01T12:35:13;25.90;49.40
46366;DHT22;32073;49.166;8.076;2022-09-01T12:39:25;26.00;49.80
46366;DHT22;32073;49.166;8.076;2022-09-01T12:43:38;26.10;49.60
46366;DHT22;32073;49.166;8.076;2022-09-01T12:51:46;26.30;49.00
46366;DHT22;32073;49.166;8.076;2022-09-01T13:00:27;26.40;48.40
46366;DHT22;32073;49.166;8.076;2022-09-01T13:04:30;26.40;47.80
46366;DHT22;32073;49.166;8.076;2022-09-01T13:08:33;26.40;47.80
46366;DHT22;32073;49.166;8.076;2022-09-01T13:12:39;26.30;47.90
46366;DHT22;32073;49.166;8.076;2022-09-01T13:16:41;26.40;48.00
46366;DHT22;32073;49.166;8.076;2022-09-01T13:20:42;26.50;48.60
46366;DHT22;32073;49.166;8.076;2022-09-01T13:24:43;26.70;48.80
46366;DHT22;32073;49.166;8.076;2022-09-01T13:28:44;26.90;47.80
46366;DHT22;32073;49.166;8.076;2022-09-01T13:32:46;26.90;47.90
46366;DHT22;32073;49.166;8.076;2022-09-01T13:36:47;27.10;47.70
46366;DHT22;32073;49.166;8.076;2022-09-01T13:40:49;27.10;47.40
46366;DHT22;32073;49.166;8.076;2022-09-01T13:44:50;27.10;47.20
46366;DHT22;32073;49.166;8.076;2022-09-01T13:48:50;27.00;47.00
46366;DHT22;32073;49.166;8.076;2022-09-01T13:52:54;27.00;46.70
46366;DHT22;32073;49.166;8.076;2022-09-01T13:56:56;27.00;46.30
46366;DHT22;32073;49.166;8.076;2022-09-01T14:00:56;26.90;46.40
46366;DHT22;32073;49.166;8.076;2022-09-01T14:04:59;26.80;46.50
46366;DHT22;32073;49.166;8.076;2022-09-01T14:08:59;26.70;46.40
46366;DHT22;32073;49.166;8.076;2022-09-01T14:13:00;26.70;46.80
46366;DHT22;32073;49.166;8.076;2022-09-01T14:17:01;26.60;46.70
46366;DHT22;32073;49.166;8.076;2022-09-01T14:21:02;26.70;46.60
46366;DHT22;32073;49.166;8.076;2022-09-01T14:25:03;26.70;46.20
46366;DHT22;32073;49.166;8.076;2022-09-01T14:29:05;26.80;45.80
46366;DHT22;32073;49.166;8.076;2022-09-01T14:33:05;26.80;45.40
46366;DHT22;32073;49.166;8.076;2022-09-01T14:37:07;26.90;45.10
46366;DHT22;32073;49.166;8.076;2022-09-01T14:41:07;26.90;45.20
46366;DHT22;32073;49.166;8.076;2022-09-01T14:45:09;26.90;44.90
46366;DHT22;32073;49.166;8.076;2022-09-01T14:49:15;26.90;44.90
46366;DHT22;32073;49.166;8.076;2022-09-01T14:53:16;27.00;45.40
46366;DHT22;32073;49.166;8.076;2022-09-01T14:57:18;27.00;45.20
46366;DHT22;32073;49.166;8.076;2022-09-01T15:01:20;27.10;44.80
46366;DHT22;32073;49.166;8.076;2022-09-01T15:05:23;27.10;44.70
46366;DHT22;32073;49.166;8.076;2022-09-01T15:09:24;27.20;44.50
46366;DHT22;32073;49.166;8.076;2022-09-01T15:13:25;27.20;44.10
46366;DHT22;32073;49.166;8.076;2022-09-01T15:17:27;27.30;43.80
46366;DHT22;32073;49.166;8.076;2022-09-01T15:21:29;27.30;43.60
46366;DHT22;32073;49.166;8.076;2022-09-01T15:25:33;27.30;43.60
46366;DHT22;32073;49.166;8.076;2022-09-01T15:29:33;27.30;43.80
46366;DHT22;32073;49.166;8.076;2022-09-01T15:33:45;27.30;43.80
46366;DHT22;32073;49.166;8.076;2022-09-01T15:37:47;27.30;43.90
46366;DHT22;32073;49.166;8.076;2022-09-01T15:41:49;27.30;43.90
46366;DHT22;32073;49.166;8.076;2022-09-01T15:45:50;27.30;43.80
46366;DHT22;32073;49.166;8.076;2022-09-01T15:49:50;27.30;43.30
46366;DHT22;32073;49.166;8.076;2022-09-01T15:53:54;27.20;43.10
46366;DHT22;32073;49.166;8.076;2022-09-01T15:57:57;27.20;43.00
46366;DHT22;32073;49.166;8.076;2022-09-01T16:01:58;27.20;43.00
46366;DHT22;32073;49.166;8.076;2022-09-01T16:06:00;27.20;43.00
46366;DHT22;32073;49.166;8.076;2022-09-01T16:10:01;27.10;43.00
46366;DHT22;32073;49.166;8.076;2022-09-01T16:14:03;27.10;43.00
46366;DHT22;32073;49.166;8.076;2022-09-01T16:18:17;27.10;42.80
46366;DHT22;32073;49.166;8.076;2022-09-01T16:23:11;27.00;42.70
46366;DHT22;32073;49.166;8.076;2022-09-01T16:27:20;27.00;42.70
46366;DHT22;32073;49.166;8.076;2022-09-01T16:31:26;26.90;42.80
46366;DHT22;32073;49.166;8.076;2022-09-01T16:36:12;26.90;42.70
46366;DHT22;32073;49.166;8.076;2022-09-01T16:49:47;26.70;43.10
46366;DHT22;32073;49.166;8.076;2022-09-01T16:59:12;26.60;43.20
46366;DHT22;32073;49.166;8.076;2022-09-01T17:03:15;26.50;43.20
46366;DHT22;32073;49.166;8.076;2022-09-01T17:07:28;26.40;43.20
46366;DHT22;32073;49.166;8.076;2022-09-01T17:11:56;26.30;43.30
46366;DHT22;32073;49.166;8.076;2022-09-01T17:20:30;26.20;43.30
46366;DHT22;32073;49.166;8.076;2022-09-01T17:25:02;26.20;43.40
46366;DHT22;32073;49.166;8.076;2022-09-01T17:29:18;26.10;43.40
46366;DHT22;32073;49.166;8.076;2022-09-01T17:42:50;26.00;43.90
46366;DHT22;32073;49.166;8.076;2022-09-01T17:51:40;25.80;44.00
46366;DHT22;32073;49.166;8.076;2022-09-01T17:55:55;25.80;44.00
46366;DHT22;32073;49.166;8.076;2022-09-01T18:00:37;25.70;44.10
46366;DHT22;32073;49.166;8.076;2022-09-01T18:09:09;25.60;44.20
46366;DHT22;32073;49.166;8.076;2022-09-01T18:22:26;25.40;44.20
46366;DHT22;32073;49.166;8.076;2022-09-01T18:26:37;25.30;44.40
46366;DHT22;32073;49.166;8.076;2022-09-01T18:30:59;25.20;44.50
46366;DHT22;32073;49.166;8.076;2022-09-01T18:44:37;24.90;44.50
46366;DHT22;32073;49.166;8.076;2022-09-01T18:49:05;24.90;44.30
46366;DHT22;32073;49.166;8.076;2022-09-01T18:57:54;24.60;44.80
46366;DHT22;32073;49.166;8.076;2022-09-01T19:02:36;24.50;45.00
46366;DHT22;32073;49.166;8.076;2022-09-01T19:07:14;24.40;45.20
46366;DHT22;32073;49.166;8.076;2022-09-01T19:21:07;24.20;45.30
46366;DHT22;32073;49.166;8.076;2022-09-01T19:25:22;24.10;45.40
46366;DHT22;32073;49.166;8.076;2022-09-01T19:29:51;24.10;45.40
46366;DHT22;32073;49.166;8.076;2022-09-01T19:33:59;24.00;45.50
46366;DHT22;32073;49.166;8.076;2022-09-01T19:38:14;24.00;45.60
46366;DHT22;32073;49.166;8.076;2022-09-01T19:42:31;23.90;45.70
46366;DHT22;32073;49.166;8.076;2022-09-01T19:46:48;23.90;45.80
46366;DHT22;32073;49.166;8.076;2022-09-01T19:51:02;23.90;45.80
46366;DHT22;32073;49.166;8.076;2022-09-01T19:55:34;23.80;45.80
46366;DHT22;32073;49.166;8.076;2022-09-01T20:00:17;23.70;45.80
46366;DHT22;32073;49.166;8.076;2022-09-01T20:04:38;23.70;45.70
46366;DHT22;32073;49.166;8.076;2022-09-01T20:08:49;23.60;45.80
46366;DHT22;32073;49.166;8.076;2022-09-01T20:17:32;23.50;46.00
46366;DHT22;32073;49.166;8.076;2022-09-01T20:21:42;23.50;45.90
46366;DHT22;32073;49.166;8.076;2022-09-01T20:25:48;23.40;45.90
46366;DHT22;32073;49.166;8.076;2022-09-01T20:30:12;23.40;46.50
46366;DHT22;32073;49.166;8.076;2022-09-01T20:34:45;23.30;45.90
46366;DHT22;32073;49.166;8.076;2022-09-01T20:43:37;23.30;46.10
46366;DHT22;32073;49.166;8.076;2022-09-01T20:47:45;23.20;46.20
46366;DHT22;32073;49.166;8.076;2022-09-01T20:51:58;23.20;46.30
46366;DHT22;32073;49.166;8.076;2022-09-01T21:00:32;23.10;46.50
46366;DHT22;32073;49.166;8.076;2022-09-01T21:05:05;23.00;46.40
46366;DHT22;32073;49.166;8.076;2022-09-01T21:14:15;22.90;46.50
46366;DHT22;32073;49.166;8.076;2022-09-01T21:23:13;22.80;46.50
46366;DHT22;32073;49.166;8.076;2022-09-01T21:27:16;22.70;46.50
46366;DHT22;32073;49.166;8.076;2022-09-01T21:31:20;22.70;46.60
46366;DHT22;32073;49.166;8.076;2022-09-01T21:35:23;22.60;46.70
46366;DHT22;32073;49.166;8.076;2022-09-01T21:39:24;22.60;46.70
46366;DHT22;32073;49.166;8.076;2022-09-01T21:43:30;22.60;46.80
46366;DHT22;32073;49.166;8.076;2022-09-01T21:47:32;22.40;47.00
46366;DHT22;32073;49.166;8.076;2022-09-01T21:51:33;22.50;46.90
46366;DHT22;32073;49.166;8.076;2022-09-01T21:55:34;22.40;47.00
46366;DHT22;32073;49.166;8.076;2022-09-01T21:59:35;22.30;47.60
46366;DHT22;32073;49.166;8.076;2022-09-01T22:03:36;22.30;47.00
46366;DHT22;32073;49.166;8.076;2022-09-01T22:07:39;22.20;47.00
46366;DHT22;32073;49.166;8.076;2022-09-01T22:11:40;22.20;47.10
46366;DHT22;32073;49.166;8.076;2022-09-01T22:15:43;22.10;47.10
46366;DHT22;32073;49.166;8.076;2022-09-01T22:19:45;22.10;47.20
46366;DHT22;32073;49.166;8.076;2022-09-01T22:23:46;22.00;47.20
46366;DHT22;32073;49.166;8.076;2022-09-01T22:27:46;21.90;47.30
46366;DHT22;32073;49.166;8.076;2022-09-01T22:31:47;21.90;47.30
46366;DHT22;32073;49.166;8.076;2022-09-01T22:35:51;21.80;47.30
46366;DHT22;32073;49.166;8.076;2022-09-01T22:39:53;21.80;47.50
46366;DHT22;32073;49.166;8.076;2022-09-01T22:43:54;21.80;47.50
46366;DHT22;32073;49.166;8.076;2022-09-01T22:47:56;21.70;47.50
46366;DHT22;32073;49.166;8.076;2022-09-01T22:51:56;21.70;47.60
46366;DHT22;32073;49.166;8.076;2022-09-01T22:55:57;21.70;47.60
46366;DHT22;32073;49.166;8.076;2022-09-01T22:59:58;21.60;47.70
46366;DHT22;32073;49.166;8.076;2022-09-01T23:04:00;21.60;47.80
46366;DHT22;32073;49.166;8.076;2022-09-01T23:08:03;21.60;47.80
46366;DHT22;32073;49.166;8.076;2022-09-01T23:12:04;21.50;47.80
46366;DHT22;32073;49.166;8.076;2022-09-01T23:16:07;21.40;47.80
46366;DHT22;32073;49.166;8.076;2022-09-01T23:20:11;21.30;47.90
46366;DHT22;32073;49.166;8.076;2022-09-01T23:24:13;21.30;48.00
46366;DHT22;32073;49.166;8.076;2022-09-01T23:28:15;21.30;48.10
46366;DHT22;32073;49.166;8.076;2022-09-01T23:32:17;21.30;48.20
46366;DHT22;32073;49.166;8.076;2022-09-01T23:36:20;21.30;48.20
46366;DHT22;32073;49.166;8.076;2022-09-01T23:40:22;21.30;48.30
46366;DHT22;32073;49.166;8.076;2022-09-01T23:44:23;21.20;48.20
46366;DHT22;32073;49.166;8.076;2022-09-01T23:48:24;21.20;48.30
46366;DHT22;32073;49.166;8.076;2022-09-01T23:52:25;21.10;48.30
46366;DHT22;32073;49.166;8.076;2022-09-01T23:56:27;21.10;48.40
